sensor_id;sensor_type;location;lat;lon;timestamp;temperature;humidity
29917;DHT22;16786;49.466;11.068;2023-03-09T00:00:56;7.90;99.90
29917;DHT22;16786;49.466;11.068;2023-03-09T00:03:23;7.90;99.90
29917;DHT22;16786;49.466;11.068;2023-03-09T00:05:56;7.80;99.90
29917;DHT22;16786;49.466;11.068;2023-03-09T00:08:25;7.80;99.90
29917;DHT22;16786;49.466;11.068;2023-03-09T00:10:54;7.90;99.90
29917;DHT22;16786;49.466;11.068;2023-03-09T00:13:22;7.90;99.90
29917;DHT22;16786;49.466;11.068;2023-03-09T00:15:49;7.90;99.90
29917;DHT22;16786;49.466;11.068;2023-03-09T00:18:19;7.90;99.90
29917;DHT22;16786;49.466;11.068;2023-03-09T00:20:47;7.90;99.90
29917;DHT22;16786;49.466;11.068;2023-03-09T00:23:14;7.90;99.90
29917;DHT22;16786;49.466;11.068;2023-03-09T00:25:45;8.00;99.90
29917;DHT22;16786;49.466;11.068;2023-03-09T00:28:13;8.00;99.90
29917;DHT22;16786;49.466;11.068;2023-03-09T00:30:40;8.10;99.90
29917;DHT22;16786;49.466;11.068;2023-03-09T00:33:07;8.10;99.90
29917;DHT22;16786;49.466;11.068;2023-03-09T00:35:37;8.10;99.90
29917;DHT22;16786;49.466;11.068;2023-03-09T00:38:05;8.10;99.90
29917;DHT22;16786;49.466;11.068;2023-03-09T00:40:32;8.20;99.90
29917;DHT22;16786;49.466;11.068;2023-03-09T00:43:00;8.20;99.90
29917;DHT22;16786;49.466;11.068;2023-03-09T00:45:27;8.20;99.90
29917;DHT22;16786;49.466;11.068;2023-03-09T00:47:54;8.20;99.90
29917;DHT22;16786;49.466;11.068;2023-03-09T00:50:22;8.20;99.90
29917;DHT22;16786;49.466;11.068;2023-03-09T00:52:49;8.20;99.90
29917;DHT22;16786;49.466;11.068;2023-03-09T00:55:16;8.30;99.90
29917;DHT22;16786;49.466;11.068;2023-03-09T00:57:43;8.20;99.90
29917;DHT22;16786;49.466;11.068;2023-03-09T01:00:11;8.20;99.90
29917;DHT22;16786;49.466;11.068;2023-03-09T01:02:38;8.20;99.90
29917;DHT22;16786;49.466;11.068;2023-03-09T01:05:08;8.30;99.90
29917;DHT22;16786;49.466;11.068;2023-03-09T01:07:36;8.30;99.90
29917;DHT22;16786;49.466;11.068;2023-03-09T01:10:04;8.30;99.90
29917;DHT22;16786;49.466;11.068;2023-03-09T01:12:35;8.30;99.90
29917;DHT22;16786;49.466;11.068;2023-03-09T01:15:03;8.30;99.90
29917;DHT22;16786;49.466;11.068;2023-03-09T01:17:30;8.40;99.90
29917;DHT22;16786;49.466;11.068;2023-03-09T01:19:58;8.40;99.90
29917;DHT22;16786;49.466;11.068;2023-03-09T01:22:25;8.40;99.90
29917;DHT22;16786;49.466;11.068;2023-03-09T01:24:52;8.40;99.90
29917;DHT22;16786;49.466;11.068;2023-03-09T01:27:20;8.40;99.90
29917;DHT22;16786;49.466;11.068;2023-03-09T01:29:47;8.40;99.90
29917;DHT22;16786;49.466;11.068;2023-03-09T01:32:15;8.40;99.90
29917;DHT22;16786;49.466;11.068;2023-03-09T01:34:42;8.50;99.90
29917;DHT22;16786;49.466;11.068;2023-03-09T01:37:10;8.50;99.90
29917;DHT22;16786;49.466;11.068;2023-03-09T01:39:37;8.50;99.90
29917;DHT22;16786;49.466;11.068;2023-03-09T01:42:04;8.50;99.90
29917;DHT22;16786;49.466;11.068;2023-03-09T01:44:31;8.40;99.90
29917;DHT22;16786;49.466;11.068;2023-03-09T01:46:59;8.50;99.90
29917;DHT22;16786;49.466;11.068;2023-03-09T01:49:45;8.50;99.90
29917;DHT22;16786;49.466;11.068;2023-03-09T01:52:26;8.50;99.90
29917;DHT22;16786;49.466;11.068;2023-03-09T01:55:04;8.60;99.90
29917;DHT22;16786;49.466;11.068;2023-03-09T01:57:39;8.60;99.90
29917;DHT22;16786;49.466;11.068;2023-03-09T02:00:13;8.90;99.90
29917;DHT22;16786;49.466;11.068;2023-03-09T02:02:45;8.90;99.90
29917;DHT22;16786;49.466;11.068;2023-03-09T02:05:25;8.90;99.90
29917;DHT22;16786;49.466;11.068;2023-03-09T02:07:53;8.90;99.90
29917;DHT22;16786;49.466;11.068;2023-03-09T02:10:34;9.00;99.90
29917;DHT22;16786;49.466;11.068;2023-03-09T02:13:14;9.00;99.90
29917;DHT22;16786;49.466;11.068;2023-03-09T02:15:42;9.20;99.90
29917;DHT22;16786;49.466;11.068;2023-03-09T02:18:10;9.20;99.90
29917;DHT22;16786;49.466;11.068;2023-03-09T02:20:50;9.20;99.90
29917;DHT22;16786;49.466;11.068;2023-03-09T02:26:27;9.20;99.90
29917;DHT22;16786;49.466;11.068;2023-03-09T02:28:56;9.20;99.90
29917;DHT22;16786;49.466;11.068;2023-03-09T02:31:23;9.10;99.90
29917;DHT22;16786;49.466;11.068;2023-03-09T02:33:51;9.10;99.90
29917;DHT22;16786;49.466;11.068;2023-03-09T02:36:18;9.10;99.90
29917;DHT22;16786;49.466;11.068;2023-03-09T02:38:48;9.10;99.90
29917;DHT22;16786;49.466;11.068;2023-03-09T02:41:15;9.00;99.90
29917;DHT22;16786;49.466;11.068;2023-03-09T02:43:50;9.10;99.90
29917;DHT22;16786;49.466;11.068;2023-03-09T02:46:19;9.10;99.90
29917;DHT22;16786;49.466;11.068;2023-03-09T02:48:46;9.00;99.90
29917;DHT22;16786;49.466;11.068;2023-03-09T02:51:14;9.00;99.90
29917;DHT22;16786;49.466;11.068;2023-03-09T02:53:42;9.10;99.90
29917;DHT22;16786;49.466;11.068;2023-03-09T02:56:10;9.10;99.90
29917;DHT22;16786;49.466;11.068;2023-03-09T02:58:38;9.10;99.90
29917;DHT22;16786;49.466;11.068;2023-03-09T03:01:05;9.00;99.90
29917;DHT22;16786;49.466;11.068;2023-03-09T03:03:32;8.90;99.90
29917;DHT22;16786;49.466;11.068;2023-03-09T03:06:00;8.90;99.90
29917;DHT22;16786;49.466;11.068;2023-03-09T03:08:28;9.00;99.90
29917;DHT22;16786;49.466;11.068;2023-03-09T03:11:06;9.00;99.90
29917;DHT22;16786;49.466;11.068;2023-03-09T03:13:36;9.00;99.90
29917;DHT22;16786;49.466;11.068;2023-03-09T03:16:04;8.90;99.90
29917;DHT22;16786;49.466;11.068;2023-03-09T03:18:32;9.00;99.90
29917;DHT22;16786;49.466;11.068;2023-03-09T03:20:59;9.00;99.90
29917;DHT22;16786;49.466;11.068;2023-03-09T03:23:27;8.90;99.90
29917;DHT22;16786;49.466;11.068;2023-03-09T03:25:56;8.90;99.90
29917;DHT22;16786;49.466;11.068;2023-03-09T03:28:29;9.00;99.90
29917;DHT22;16786;49.466;11.068;2023-03-09T03:31:02;8.90;99.90
29917;DHT22;16786;49.466;11.068;2023-03-09T03:33:30;9.00;99.90
29917;DHT22;16786;49.466;11.068;2023-03-09T03:35:58;9.10;99.90
29917;DHT22;16786;49.466;11.068;2023-03-09T03:38:25;9.20;99.90
29917;DHT22;16786;49.466;11.068;2023-03-09T03:40:53;9.30;99.90
29917;DHT22;16786;49.466;11.068;2023-03-09T03:43:21;9.30;99.90
29917;DHT22;16786;49.466;11.068;2023-03-09T03:45:51;9.30;99.90
29917;DHT22;16786;49.466;11.068;2023-03-09T03:48:21;9.30;99.90
29917;DHT22;16786;49.466;11.068;2023-03-09T03:50:49;9.30;99.90
29917;DHT22;16786;49.466;11.068;2023-03-09T03:53:16;9.40;99.90
29917;DHT22;16786;49.466;11.068;2023-03-09T03:55:43;9.30;99.90
29917;DHT22;16786;49.466;11.068;2023-03-09T03:58:11;9.30;99.90
29917;DHT22;16786;49.466;11.068;2023-03-09T04:00:39;9.20;99.90
29917;DHT22;16786;49.466;11.068;2023-03-09T04:03:11;9.20;99.90
29917;DHT22;16786;49.466;11.068;2023-03-09T04:05:46;9.20;99.90
29917;DHT22;16786;49.466;11.068;2023-03-09T04:08:15;9.20;99.90
29917;DHT22;16786;49.466;11.068;2023-03-09T04:10:44;9.10;99.90
29917;DHT22;16786;49.466;11.068;2023-03-09T04:13:14;9.20;99.90
29917;DHT22;16786;49.466;11.068;2023-03-09T04:15:43;9.10;99.90
29917;DHT22;16786;49.466;11.068;2023-03-09T04:18:10;9.10;99.90
29917;DHT22;16786;49.466;11.068;2023-03-09T04:20:39;9.10;99.90
29917;DHT22;16786;49.466;11.068;2023-03-09T04:23:08;9.10;99.90
29917;DHT22;16786;49.466;11.068;2023-03-09T04:25:38;9.00;99.90
29917;DHT22;16786;49.466;11.068;2023-03-09T04:28:05;9.00;99.90
29917;DHT22;16786;49.466;11.068;2023-03-09T04:30:36;9.00;99.90
29917;DHT22;16786;49.466;11.068;2023-03-09T04:33:08;9.00;99.90
29917;DHT22;16786;49.466;11.068;2023-03-09T04:35:36;9.00;99.90
29917;DHT22;16786;49.466;11.068;2023-03-09T04:38:09;9.00;99.90
29917;DHT22;16786;49.466;11.068;2023-03-09T04:40:38;9.00;99.90
29917;DHT22;16786;49.466;11.068;2023-03-09T04:43:06;8.90;99.90
29917;DHT22;16786;49.466;11.068;2023-03-09T04:45:34;8.90;99.90
29917;DHT22;16786;49.466;11.068;2023-03-09T04:48:02;8.90;99.90
29917;DHT22;16786;49.466;11.068;2023-03-09T04:50:30;8.90;99.90
29917;DHT22;16786;49.466;11.068;2023-03-09T04:53:01;8.90;99.90
29917;DHT22;16786;49.466;11.068;2023-03-09T04:55:30;8.90;99.90
29917;DHT22;16786;49.466;11.068;2023-03-09T04:57:59;8.90;99.90
29917;DHT22;16786;49.466;11.068;2023-03-09T05:00:28;8.80;99.90
29917;DHT22;16786;49.466;11.068;2023-03-09T05:02:56;8.80;99.90
29917;DHT22;16786;49.466;11.068;2023-03-09T05:05:24;8.70;99.90
29917;DHT22;16786;49.466;11.068;2023-03-09T05:07:54;8.60;99.90
29917;DHT22;16786;49.466;11.068;2023-03-09T05:10:21;8.60;99.90
29917;DHT22;16786;49.466;11.068;2023-03-09T05:12:51;8.60;99.90
29917;DHT22;16786;49.466;11.068;2023-03-09T05:15:24;8.60;99.90
29917;DHT22;16786;49.466;11.068;2023-03-09T05:17:51;8.60;99.90
29917;DHT22;16786;49.466;11.068;2023-03-09T05:20:19;8.50;99.90
29917;DHT22;16786;49.466;11.068;2023-03-09T05:22:53;8.40;99.90
29917;DHT22;16786;49.466;11.068;2023-03-09T05:25:21;8.50;99.90
29917;DHT22;16786;49.466;11.068;2023-03-09T05:27:51;8.50;99.90
29917;DHT22;16786;49.466;11.068;2023-03-09T05:30:18;8.50;99.90
29917;DHT22;16786;49.466;11.068;2023-03-09T05:32:47;8.50;99.90
29917;DHT22;16786;49.466;11.068;2023-03-09T05:35:19;8.40;99.90
29917;DHT22;16786;49.466;11.068;2023-03-09T05:37:47;8.50;99.90
29917;DHT22;16786;49.466;11.068;2023-03-09T05:40:18;8.60;99.90
29917;DHT22;16786;49.466;11.068;2023-03-09T05:42:52;8.60;99.90
29917;DHT22;16786;49.466;11.068;2023-03-09T05:45:20;8.60;99.90
29917;DHT22;16786;49.466;11.068;2023-03-09T05:47:48;8.60;99.90
29917;DHT22;16786;49.466;11.068;2023-03-09T05:50:15;8.70;99.90
29917;DHT22;16786;49.466;11.068;2023-03-09T05:52:43;8.70;99.90
29917;DHT22;16786;49.466;11.068;2023-03-09T05:55:11;8.70;99.90
29917;DHT22;16786;49.466;11.068;2023-03-09T05:57:42;8.70;99.90
29917;DHT22;16786;49.466;11.068;2023-03-09T06:00:10;8.70;99.90
29917;DHT22;16786;49.466;11.068;2023-03-09T06:02:45;8.70;99.90
29917;DHT22;16786;49.466;11.068;2023-03-09T06:05:18;8.70;99.90
29917;DHT22;16786;49.466;11.068;2023-03-09T06:07:46;8.70;99.90
29917;DHT22;16786;49.466;11.068;2023-03-09T06:10:13;8.60;99.90
29917;DHT22;16786;49.466;11.068;2023-03-09T06:12:42;8.60;99.90
29917;DHT22;16786;49.466;11.068;2023-03-09T06:15:10;8.60;99.90
29917;DHT22;16786;49.466;11.068;2023-03-09T06:17:39;8.70;99.90
29917;DHT22;16786;49.466;11.068;2023-03-09T06:20:11;8.60;99.90
29917;DHT22;16786;49.466;11.068;2023-03-09T06:22:44;8.60;99.90
29917;DHT22;16786;49.466;11.068;2023-03-09T06:25:13;8.70;99.90
29917;DHT22;16786;49.466;11.068;2023-03-09T06:27:41;8.70;99.90
29917;DHT22;16786;49.466;11.068;2023-03-09T06:30:12;8.70;99.90
29917;DHT22;16786;49.466;11.068;2023-03-09T06:32:40;8.70;99.90
29917;DHT22;16786;49.466;11.068;2023-03-09T06:35:09;8.60;99.90
29917;DHT22;16786;49.466;11.068;2023-03-09T06:37:37;8.70;99.90
29917;DHT22;16786;49.466;11.068;2023-03-09T06:40:06;8.70;99.90
29917;DHT22;16786;49.466;11.068;2023-03-09T06:42:34;8.70;99.90
29917;DHT22;16786;49.466;11.068;2023-03-09T06:45:03;8.70;99.90
29917;DHT22;16786;49.466;11.068;2023-03-09T06:47:31;8.70;99.90
29917;DHT22;16786;49.466;11.068;2023-03-09T06:50:04;8.80;99.90
29917;DHT22;16786;49.466;11.068;2023-03-09T06:52:35;8.90;99.90
29917;DHT22;16786;49.466;11.068;2023-03-09T06:55:04;8.90;99.90
29917;DHT22;16786;49.466;11.068;2023-03-09T06:57:49;8.90;99.90
29917;DHT22;16786;49.466;11.068;2023-03-09T07:00:16;8.90;99.90
29917;DHT22;16786;49.466;11.068;2023-03-09T07:02:47;9.00;99.90
29917;DHT22;16786;49.466;11.068;2023-03-09T07:05:15;9.00;99.90
29917;DHT22;16786;49.466;11.068;2023-03-09T07:07:42;9.10;99.90
29917;DHT22;16786;49.466;11.068;2023-03-09T07:10:11;9.20;99.90
29917;DHT22;16786;49.466;11.068;2023-03-09T07:12:38;9.20;99.90
29917;DHT22;16786;49.466;11.068;2023-03-09T07:15:06;9.20;99.90
29917;DHT22;16786;49.466;11.068;2023-03-09T07:17:34;9.30;99.90
29917;DHT22;16786;49.466;11.068;2023-03-09T07:20:01;9.20;99.90
29917;DHT22;16786;49.466;11.068;2023-03-09T07:22:28;9.20;99.90
29917;DHT22;16786;49.466;11.068;2023-03-09T07:24:55;9.20;99.90
29917;DHT22;16786;49.466;11.068;2023-03-09T07:27:23;9.10;99.90
29917;DHT22;16786;49.466;11.068;2023-03-09T07:29:50;9.20;99.90
29917;DHT22;16786;49.466;11.068;2023-03-09T07:32:17;9.30;99.90
29917;DHT22;16786;49.466;11.068;2023-03-09T07:34:45;9.30;99.90
29917;DHT22;16786;49.466;11.068;2023-03-09T07:37:12;9.40;99.90
29917;DHT22;16786;49.466;11.068;2023-03-09T07:39:39;9.40;99.90
29917;DHT22;16786;49.466;11.068;2023-03-09T07:42:07;9.50;99.90
29917;DHT22;16786;49.466;11.068;2023-03-09T07:44:52;9.40;99.90
29917;DHT22;16786;49.466;11.068;2023-03-09T07:47:20;9.40;99.90
29917;DHT22;16786;49.466;11.068;2023-03-09T07:49:49;9.40;99.90
29917;DHT22;16786;49.466;11.068;2023-03-09T07:52:16;9.40;99.90
29917;DHT22;16786;49.466;11.068;2023-03-09T07:54:43;9.40;99.90
29917;DHT22;16786;49.466;11.068;2023-03-09T07:57:11;9.40;99.90
29917;DHT22;16786;49.466;11.068;2023-03-09T07:59:38;9.40;99.90
29917;DHT22;16786;49.466;11.068;2023-03-09T08:02:08;9.50;99.90
29917;DHT22;16786;49.466;11.068;2023-03-09T08:04:36;9.50;99.90
29917;DHT22;16786;49.466;11.068;2023-03-09T08:07:03;9.50;99.90
29917;DHT22;16786;49.466;11.068;2023-03-09T08:09:31;9.70;99.90
29917;DHT22;16786;49.466;11.068;2023-03-09T08:11:58;9.70;99.90
29917;DHT22;16786;49.466;11.068;2023-03-09T08:14:26;9.70;99.90
29917;DHT22;16786;49.466;11.068;2023-03-09T08:16:53;9.70;99.90
29917;DHT22;16786;49.466;11.068;2023-03-09T08:19:21;9.70;99.90
29917;DHT22;16786;49.466;11.068;2023-03-09T08:21:49;9.70;99.90
29917;DHT22;16786;49.466;11.068;2023-03-09T08:24:16;9.70;99.90
29917;DHT22;16786;49.466;11.068;2023-03-09T08:26:43;9.70;99.90
29917;DHT22;16786;49.466;11.068;2023-03-09T08:29:11;9.50;99.90
29917;DHT22;16786;49.466;11.068;2023-03-09T08:31:38;9.50;99.90
29917;DHT22;16786;49.466;11.068;2023-03-09T08:34:06;9.40;99.90
29917;DHT22;16786;49.466;11.068;2023-03-09T08:36:34;9.30;99.90
29917;DHT22;16786;49.466;11.068;2023-03-09T08:39:02;9.30;99.90
29917;DHT22;16786;49.466;11.068;2023-03-09T08:41:29;9.30;99.90
29917;DHT22;16786;49.466;11.068;2023-03-09T08:43:57;9.40;99.90
29917;DHT22;16786;49.466;11.068;2023-03-09T08:46:24;9.40;99.90
29917;DHT22;16786;49.466;11.068;2023-03-09T08:48:52;9.50;99.90
29917;DHT22;16786;49.466;11.068;2023-03-09T08:51:20;9.60;99.90
29917;DHT22;16786;49.466;11.068;2023-03-09T08:53:48;9.50;99.90
29917;DHT22;16786;49.466;11.068;2023-03-09T08:56:15;9.70;99.90
29917;DHT22;16786;49.466;11.068;2023-03-09T08:58:44;9.90;99.90
29917;DHT22;16786;49.466;11.068;2023-03-09T09:01:12;9.90;99.90
29917;DHT22;16786;49.466;11.068;2023-03-09T09:03:39;9.90;99.90
29917;DHT22;16786;49.466;11.068;2023-03-09T09:06:12;10.00;99.90
29917;DHT22;16786;49.466;11.068;2023-03-09T09:08:42;10.00;99.90
29917;DHT22;16786;49.466;11.068;2023-03-09T09:11:13;10.00;99.90
29917;DHT22;16786;49.466;11.068;2023-03-09T09:13:41;10.00;99.90
29917;DHT22;16786;49.466;11.068;2023-03-09T09:16:09;10.10;99.90
29917;DHT22;16786;49.466;11.068;2023-03-09T09:18:38;10.10;99.90
29917;DHT22;16786;49.466;11.068;2023-03-09T09:21:09;10.10;99.90
29917;DHT22;16786;49.466;11.068;2023-03-09T09:23:38;10.20;99.90
29917;DHT22;16786;49.466;11.068;2023-03-09T09:26:06;10.20;99.90
29917;DHT22;16786;49.466;11.068;2023-03-09T09:28:33;10.20;99.90
29917;DHT22;16786;49.466;11.068;2023-03-09T09:31:02;10.30;99.90
29917;DHT22;16786;49.466;11.068;2023-03-09T09:33:34;10.30;99.90
29917;DHT22;16786;49.466;11.068;2023-03-09T09:36:08;10.40;99.90
29917;DHT22;16786;49.466;11.068;2023-03-09T09:38:38;10.60;99.90
29917;DHT22;16786;49.466;11.068;2023-03-09T09:43:38;10.60;99.90
29917;DHT22;16786;49.466;11.068;2023-03-09T09:46:10;10.60;99.90
29917;DHT22;16786;49.466;11.068;2023-03-09T09:48:41;10.70;99.90
29917;DHT22;16786;49.466;11.068;2023-03-09T09:51:46;10.60;99.90
29917;DHT22;16786;49.466;11.068;2023-03-09T09:54:41;10.50;99.90
29917;DHT22;16786;49.466;11.068;2023-03-09T10:03:00;10.70;99.90
29917;DHT22;16786;49.466;11.068;2023-03-09T10:13:53;10.90;99.90
29917;DHT22;16786;49.466;11.068;2023-03-09T10:16:37;10.90;99.90
29917;DHT22;16786;49.466;11.068;2023-03-09T10:19:15;10.80;99.90
29917;DHT22;16786;49.466;11.068;2023-03-09T10:21:55;10.80;99.90
29917;DHT22;16786;49.466;11.068;2023-03-09T10:24:37;10.70;99.90
29917;DHT22;16786;49.466;11.068;2023-03-09T10:27:07;10.70;99.90
29917;DHT22;16786;49.466;11.068;2023-03-09T10:32:18;10.70;99.90
29917;DHT22;16786;49.466;11.068;2023-03-09T10:34:57;10.70;99.90
29917;DHT22;16786;49.466;11.068;2023-03-09T10:37:34;10.70;99.90
29917;DHT22;16786;49.466;11.068;2023-03-09T10:40:07;10.60;99.90
29917;DHT22;16786;49.466;11.068;2023-03-09T10:42:40;10.50;99.90
29917;DHT22;16786;49.466;11.068;2023-03-09T10:45:22;10.50;99.90
29917;DHT22;16786;49.466;11.068;2023-03-09T10:48:02;10.40;99.90
29917;DHT22;16786;49.466;11.068;2023-03-09T10:50:36;10.40;99.90
29917;DHT22;16786;49.466;11.068;2023-03-09T10:53:30;10.40;99.90
29917;DHT22;16786;49.466;11.068;2023-03-09T10:56:21;10.30;99.90
29917;DHT22;16786;49.466;11.068;2023-03-09T10:59:11;10.40;99.90
29917;DHT22;16786;49.466;11.068;2023-03-09T11:01:42;10.50;99.90
29917;DHT22;16786;49.466;11.068;2023-03-09T11:07:03;10.40;99.90
29917;DHT22;16786;49.466;11.068;2023-03-09T11:09:45;10.50;99.90
29917;DHT22;16786;49.466;11.068;2023-03-09T11:15:24;10.80;99.90
29917;DHT22;16786;49.466;11.068;2023-03-09T11:17:52;11.00;99.90
29917;DHT22;16786;49.466;11.068;2023-03-09T11:20:35;11.00;99.90
29917;DHT22;16786;49.466;11.068;2023-03-09T11:23:15;11.10;99.90
29917;DHT22;16786;49.466;11.068;2023-03-09T11:28:53;11.20;99.90
29917;DHT22;16786;49.466;11.068;2023-03-09T11:31:18;11.30;99.90
29917;DHT22;16786;49.466;11.068;2023-03-09T11:33:48;11.30;99.90
29917;DHT22;16786;49.466;11.068;2023-03-09T11:36:19;11.30;99.90
29917;DHT22;16786;49.466;11.068;2023-03-09T11:38:48;11.30;99.90
29917;DHT22;16786;49.466;11.068;2023-03-09T11:43:53;11.50;99.90
29917;DHT22;16786;49.466;11.068;2023-03-09T11:46:22;11.60;99.90
29917;DHT22;16786;49.466;11.068;2023-03-09T11:48:53;11.90;99.90
29917;DHT22;16786;49.466;11.068;2023-03-09T11:51:28;12.10;99.90
29917;DHT22;16786;49.466;11.068;2023-03-09T11:54:22;12.20;99.90
29917;DHT22;16786;49.466;11.068;2023-03-09T11:56:52;12.30;99.90
29917;DHT22;16786;49.466;11.068;2023-03-09T11:59:36;12.00;99.90
29917;DHT22;16786;49.466;11.068;2023-03-09T12:04:51;11.90;99.90
29917;DHT22;16786;49.466;11.068;2023-03-09T12:07:53;11.80;99.90
29917;DHT22;16786;49.466;11.068;2023-03-09T12:10:33;11.80;99.90
29917;DHT22;16786;49.466;11.068;2023-03-09T12:13:12;11.80;99.90
29917;DHT22;16786;49.466;11.068;2023-03-09T12:15:58;11.70;99.90
29917;DHT22;16786;49.466;11.068;2023-03-09T12:18:30;11.60;99.90
29917;DHT22;16786;49.466;11.068;2023-03-09T12:21:00;11.60;99.90
29917;DHT22;16786;49.466;11.068;2023-03-09T12:28:39;12.10;99.90
29917;DHT22;16786;49.466;11.068;2023-03-09T12:31:28;12.20;99.90
29917;DHT22;16786;49.466;11.068;2023-03-09T12:41:57;11.90;99.90
29917;DHT22;16786;49.466;11.068;2023-03-09T13:00:58;11.70;99.90
29917;DHT22;16786;49.466;11.068;2023-03-09T13:03:33;11.70;99.90
29917;DHT22;16786;49.466;11.068;2023-03-09T13:19:54;12.30;99.90
29917;DHT22;16786;49.466;11.068;2023-03-09T13:22:23;12.40;99.90
29917;DHT22;16786;49.466;11.068;2023-03-09T13:25:22;12.60;99.90
29917;DHT22;16786;49.466;11.068;2023-03-09T13:28:00;12.90;99.90
29917;DHT22;16786;49.466;11.068;2023-03-09T13:30:29;12.90;99.90
29917;DHT22;16786;49.466;11.068;2023-03-09T13:35:32;13.10;99.90
29917;DHT22;16786;49.466;11.068;2023-03-09T13:38:02;13.80;99.90
29917;DHT22;16786;49.466;11.068;2023-03-09T13:40:49;13.90;99.90
29917;DHT22;16786;49.466;11.068;2023-03-09T13:43:29;13.80;99.90
29917;DHT22;16786;49.466;11.068;2023-03-09T13:46:16;13.50;99.90
29917;DHT22;16786;49.466;11.068;2023-03-09T13:48:49;13.70;99.90
29917;DHT22;16786;49.466;11.068;2023-03-09T13:53:53;14.20;99.90
29917;DHT22;16786;49.466;11.068;2023-03-09T13:56:21;14.10;99.90
29917;DHT22;16786;49.466;11.068;2023-03-09T13:58:48;13.80;99.90
29917;DHT22;16786;49.466;11.068;2023-03-09T14:01:23;13.50;99.90
29917;DHT22;16786;49.466;11.068;2023-03-09T14:03:54;13.20;99.90
29917;DHT22;16786;49.466;11.068;2023-03-09T14:11:47;13.30;99.90
29917;DHT22;16786;49.466;11.068;2023-03-09T14:14:19;14.00;99.90
29917;DHT22;16786;49.466;11.068;2023-03-09T14:16:49;15.40;99.90
29917;DHT22;16786;49.466;11.068;2023-03-09T14:19:31;16.10;99.90
29917;DHT22;16786;49.466;11.068;2023-03-09T14:21:59;16.40;99.90
29917;DHT22;16786;49.466;11.068;2023-03-09T14:24:34;15.70;99.90
29917;DHT22;16786;49.466;11.068;2023-03-09T14:29:50;14.40;99.90
29917;DHT22;16786;49.466;11.068;2023-03-09T14:34:51;13.80;99.90
29917;DHT22;16786;49.466;11.068;2023-03-09T14:37:30;13.50;99.90
29917;DHT22;16786;49.466;11.068;2023-03-09T14:39:59;13.40;99.90
29917;DHT22;16786;49.466;11.068;2023-03-09T14:42:28;13.30;99.90
29917;DHT22;16786;49.466;11.068;2023-03-09T14:47:38;13.00;99.90
29917;DHT22;16786;49.466;11.068;2023-03-09T14:50:06;13.00;99.90
29917;DHT22;16786;49.466;11.068;2023-03-09T14:52:35;12.90;99.90
29917;DHT22;16786;49.466;11.068;2023-03-09T14:55:02;12.70;99.90
29917;DHT22;16786;49.466;11.068;2023-03-09T14:57:30;12.60;99.90
29917;DHT22;16786;49.466;11.068;2023-03-09T14:59:57;12.50;99.90
29917;DHT22;16786;49.466;11.068;2023-03-09T15:02:24;12.60;99.90
29917;DHT22;16786;49.466;11.068;2023-03-09T15:04:52;12.70;99.90
29917;DHT22;16786;49.466;11.068;2023-03-09T15:07:19;13.00;99.90
29917;DHT22;16786;49.466;11.068;2023-03-09T15:09:47;13.20;99.90
29917;DHT22;16786;49.466;11.068;2023-03-09T15:12:17;13.90;99.90
29917;DHT22;16786;49.466;11.068;2023-03-09T15:14:47;15.50;99.90
29917;DHT22;16786;49.466;11.068;2023-03-09T15:17:20;17.40;99.90
29917;DHT22;16786;49.466;11.068;2023-03-09T15:19:48;18.00;99.90
29917;DHT22;16786;49.466;11.068;2023-03-09T15:22:17;18.30;99.90
29917;DHT22;16786;49.466;11.068;2023-03-09T15:24:46;18.60;99.90
29917;DHT22;16786;49.466;11.068;2023-03-09T15:27:13;18.30;99.90
29917;DHT22;16786;49.466;11.068;2023-03-09T15:29:41;18.20;99.90
29917;DHT22;16786;49.466;11.068;2023-03-09T15:32:08;17.30;99.90
29917;DHT22;16786;49.466;11.068;2023-03-09T15:34:40;16.60;99.90
29917;DHT22;16786;49.466;11.068;2023-03-09T15:37:08;17.10;99.90
29917;DHT22;16786;49.466;11.068;2023-03-09T15:39:35;18.10;99.90
29917;DHT22;16786;49.466;11.068;2023-03-09T15:42:03;17.20;99.90
29917;DHT22;16786;49.466;11.068;2023-03-09T15:44:30;16.40;99.90
29917;DHT22;16786;49.466;11.068;2023-03-09T15:47:00;15.10;99.90
29917;DHT22;16786;49.466;11.068;2023-03-09T15:49:27;14.40;99.90
29917;DHT22;16786;49.466;11.068;2023-03-09T15:51:54;14.20;99.90
29917;DHT22;16786;49.466;11.068;2023-03-09T15:54:21;14.10;99.90
29917;DHT22;16786;49.466;11.068;2023-03-09T15:56:49;14.00;99.90
29917;DHT22;16786;49.466;11.068;2023-03-09T15:59:16;13.70;99.90
29917;DHT22;16786;49.466;11.068;2023-03-09T16:01:43;13.30;99.90
29917;DHT22;16786;49.466;11.068;2023-03-09T16:04:12;13.10;99.90
29917;DHT22;16786;49.466;11.068;2023-03-09T16:06:41;13.00;99.90
29917;DHT22;16786;49.466;11.068;2023-03-09T16:09:08;13.00;99.90
29917;DHT22;16786;49.466;11.068;2023-03-09T16:11:36;13.10;99.90
29917;DHT22;16786;49.466;11.068;2023-03-09T16:14:05;13.70;99.90
29917;DHT22;16786;49.466;11.068;2023-03-09T16:16:32;15.10;99.90
29917;DHT22;16786;49.466;11.068;2023-03-09T16:19:00;15.90;99.90
29917;DHT22;16786;49.466;11.068;2023-03-09T16:21:27;16.00;99.90
29917;DHT22;16786;49.466;11.068;2023-03-09T16:23:54;15.40;99.90
29917;DHT22;16786;49.466;11.068;2023-03-09T16:26:22;14.40;99.90
29917;DHT22;16786;49.466;11.068;2023-03-09T16:28:50;13.90;99.90
29917;DHT22;16786;49.466;11.068;2023-03-09T16:31:22;13.60;99.90
29917;DHT22;16786;49.466;11.068;2023-03-09T16:33:54;13.10;99.90
29917;DHT22;16786;49.466;11.068;2023-03-09T16:36:22;12.90;99.90
29917;DHT22;16786;49.466;11.068;2023-03-09T16:38:50;13.60;99.90
29917;DHT22;16786;49.466;11.068;2023-03-09T16:41:17;14.30;99.90
29917;DHT22;16786;49.466;11.068;2023-03-09T16:43:45;13.90;99.90
29917;DHT22;16786;49.466;11.068;2023-03-09T16:46:17;13.60;99.90
29917;DHT22;16786;49.466;11.068;2023-03-09T16:48:45;13.20;99.90
29917;DHT22;16786;49.466;11.068;2023-03-09T16:51:15;12.70;99.90
29917;DHT22;16786;49.466;11.068;2023-03-09T16:53:44;12.50;99.90
29917;DHT22;16786;49.466;11.068;2023-03-09T16:56:11;12.20;99.90
29917;DHT22;16786;49.466;11.068;2023-03-09T16:58:39;11.80;99.90
29917;DHT22;16786;49.466;11.068;2023-03-09T17:01:15;11.60;99.90
29917;DHT22;16786;49.466;11.068;2023-03-09T17:03:42;11.40;99.90
29917;DHT22;16786;49.466;11.068;2023-03-09T17:06:18;11.30;99.90
29917;DHT22;16786;49.466;11.068;2023-03-09T17:08:49;11.20;99.90
29917;DHT22;16786;49.466;11.068;2023-03-09T17:11:17;11.00;99.90
29917;DHT22;16786;49.466;11.068;2023-03-09T17:13:48;10.90;99.90
29917;DHT22;16786;49.466;11.068;2023-03-09T17:16:17;10.80;99.90
29917;DHT22;16786;49.466;11.068;2023-03-09T17:18:45;10.70;99.90
29917;DHT22;16786;49.466;11.068;2023-03-09T17:21:13;10.60;99.90
29917;DHT22;16786;49.466;11.068;2023-03-09T17:23:41;10.60;99.90